Time;durP1;ratioP1;P1;durP2;ratioP2;P2;SDS_P1;SDS_P2;PMS_P1;PMS_P2;Temp;Humidity;BMP_temperature;BMP_pressure;BME280_temperature;BME280_humidity;BME280_pressure;Samples;Min_cycle;Max_cycle;Signal;HPM_P1;HPM_P2
2021/12/29 00:01:23;;;;;;;7.68;4.45;;;9.80;99.90;;;;;;4955122;29;20394;-72
2021/12/29 00:03:49;;;;;;;5.68;3.80;;;9.80;99.90;;;;;;4954842;29;20899;-72
2021/12/29 00:06:15;;;;;;;5.13;4.50;;;9.80;99.90;;;;;;4954737;29;20400;-74
2021/12/29 00:08:40;;;;;;;10.43;5.10;;;9.80;99.90;;;;;;4954259;29;20389;-72
2021/12/29 00:11:06;;;;;;;9.10;5.00;;;9.80;99.90;;;;;;4955081;28;20390;-73
2021/12/29 00:13:33;;;;;;;6.03;5.18;;;9.80;99.90;;;;;;4958168;29;20448;-73
2021/12/29 00:16:00;;;;;;;9.52;5.20;;;9.80;99.90;;;;;;4958582;29;20389;-71
2021/12/29 00:18:28;;;;;;;6.28;5.10;;;9.80;99.90;;;;;;4957272;29;20393;-72
2021/12/29 00:20:54;;;;;;;6.60;5.05;;;9.80;99.90;;;;;;4957523;29;20405;-71
2021/12/29 00:23:20;;;;;;;6.70;5.53;;;9.80;99.90;;;;;;4958439;29;20382;-73
2021/12/29 00:25:45;;;;;;;7.82;5.50;;;9.80;99.90;;;;;;4956176;29;20912;-73
2021/12/29 00:28:11;;;;;;;7.00;5.60;;;9.80;99.90;;;;;;4957129;29;20448;-72
2021/12/29 00:30:36;;;;;;;10.87;6.20;;;9.80;99.90;;;;;;4957486;29;20405;-72
2021/12/29 00:33:02;;;;;;;9.17;6.20;;;9.80;99.90;;;;;;4956909;29;20401;-71
2021/12/29 00:35:29;;;;;;;9.68;6.03;;;9.80;99.90;;;;;;4957199;29;20421;-72
2021/12/29 00:37:59;;;;;;;9.10;6.27;;;9.90;99.90;;;;;;4956618;29;20432;-72
2021/12/29 00:40:25;;;;;;;8.43;6.10;;;9.80;99.90;;;;;;4956546;28;20413;-71
2021/12/29 00:42:51;;;;;;;6.97;6.00;;;9.80;99.90;;;;;;4956332;29;20413;-72
2021/12/29 00:45:16;;;;;;;10.27;6.90;;;9.80;99.90;;;;;;4957121;29;20394;-69
2021/12/29 00:47:42;;;;;;;11.10;7.10;;;9.80;99.90;;;;;;4956421;29;20417;-71
2021/12/29 00:50:13;;;;;;;10.50;7.15;;;9.90;99.90;;;;;;4956664;28;20390;-72
2021/12/29 00:52:39;;;;;;;13.52;7.90;;;9.80;99.90;;;;;;4955271;29;20891;-71
2021/12/29 00:55:05;;;;;;;11.23;7.33;;;9.80;99.90;;;;;;4956290;28;20463;-71
2021/12/29 00:57:31;;;;;;;13.57;7.40;;;9.80;99.90;;;;;;4956102;29;20492;-72
2021/12/29 00:59:56;;;;;;;11.93;7.80;;;9.80;99.90;;;;;;4956416;29;20557;-72
2021/12/29 01:02:23;;;;;;;10.00;7.87;;;9.80;99.90;;;;;;4956185;29;20530;-70
2021/12/29 01:04:49;;;;;;;12.52;8.35;;;9.70;99.90;;;;;;4956160;29;20786;-71
2021/12/29 01:07:14;;;;;;;12.98;7.93;;;9.80;99.90;;;;;;4955953;29;20465;-71
2021/12/29 01:09:42;;;;;;;11.60;8.18;;;9.80;99.90;;;;;;4956770;29;20437;-73
2021/12/29 01:12:08;;;;;;;11.90;7.70;;;9.80;99.90;;;;;;4956674;28;20453;-74
2021/12/29 01:14:34;;;;;;;11.57;7.53;;;9.80;99.90;;;;;;4956193;29;20386;-71
2021/12/29 01:17:00;;;;;;;12.83;8.70;;;9.70;99.90;;;;;;4956200;29;20401;-71
2021/12/29 01:19:29;;;;;;;12.67;8.37;;;9.70;99.90;;;;;;4954745;29;20414;-71
2021/12/29 01:21:57;;;;;;;14.10;8.60;;;9.80;99.90;;;;;;4955617;28;20417;-73
2021/12/29 01:24:26;;;;;;;12.30;8.95;;;9.90;99.90;;;;;;4955676;29;20394;-72
2021/12/29 01:26:52;;;;;;;15.30;10.70;;;9.80;99.90;;;;;;4955533;29;20390;-72
2021/12/29 01:29:18;;;;;;;14.45;10.63;;;9.80;99.90;;;;;;4956121;28;20417;-71
2021/12/29 01:31:44;;;;;;;14.35;10.20;;;9.80;99.90;;;;;;4956091;28;20488;-73
2021/12/29 01:34:11;;;;;;;16.17;11.90;;;9.80;99.90;;;;;;4956089;28;20491;-73
2021/12/29 01:36:38;;;;;;;17.13;11.25;;;9.70;99.90;;;;;;4955185;28;20741;-72
2021/12/29 01:39:08;;;;;;;16.70;11.50;;;9.80;99.90;;;;;;4955398;28;20457;-71
2021/12/29 01:41:34;;;;;;;16.30;10.68;;;9.70;99.90;;;;;;4955063;28;20453;-71
2021/12/29 01:44:00;;;;;;;19.80;12.10;;;9.80;99.90;;;;;;4970091;28;20391;-72
2021/12/29 01:46:26;;;;;;;15.70;11.10;;;9.80;99.90;;;;;;4955524;28;20787;-71
2021/12/29 01:48:51;;;;;;;16.33;10.57;;;9.80;99.90;;;;;;4971018;28;20397;-71
2021/12/29 01:51:19;;;;;;;15.40;11.20;;;9.80;99.90;;;;;;4955516;28;20393;-72
2021/12/29 01:54:03;;;;;;;14.02;10.23;;;9.80;99.90;;;;;;4955021;28;20398;-71
2021/12/29 01:56:31;;;;;;;13.63;10.15;;;9.80;99.90;;;;;;4955135;28;20431;-73
2021/12/29 01:58:56;;;;;;;14.60;10.20;;;9.80;99.90;;;;;;4955352;28;20414;-71
2021/12/29 02:01:23;;;;;;;12.60;9.90;;;9.80;99.90;;;;;;4955326;28;20476;-72
2021/12/29 02:03:50;;;;;;;12.70;9.10;;;9.90;99.90;;;;;;4954480;29;20401;-72
2021/12/29 02:06:16;;;;;;;12.40;7.80;;;9.80;99.90;;;;;;4954589;28;20768;-72
2021/12/29 02:08:42;;;;;;;8.48;6.60;;;9.80;99.90;;;;;;4954722;29;20402;-71
2021/12/29 02:11:08;;;;;;;7.00;6.10;;;9.80;99.90;;;;;;4954705;29;20393;-70
2021/12/29 02:13:34;;;;;;;7.57;6.00;;;9.80;99.90;;;;;;4954830;29;20426;-71
2021/12/29 02:15:59;;;;;;;6.45;5.50;;;9.80;99.90;;;;;;4954530;29;20441;-72
2021/12/29 02:18:26;;;;;;;6.00;5.40;;;9.90;99.90;;;;;;4954336;29;20880;-72
2021/12/29 02:20:55;;;;;;;5.07;4.00;;;9.90;99.90;;;;;;4952656;28;20429;-71
2021/12/29 02:23:30;;;;;;;5.80;4.10;;;9.90;99.90;;;;;;4952995;29;20394;-71
2021/12/29 02:25:57;;;;;;;4.90;4.40;;;9.90;99.90;;;;;;4953834;28;20386;-71
2021/12/29 02:28:25;;;;;;;4.38;3.95;;;9.90;99.90;;;;;;4953958;29;20902;-71
2021/12/29 02:30:51;;;;;;;4.97;4.30;;;9.90;99.90;;;;;;4953671;29;20404;-71
2021/12/29 02:33:17;;;;;;;5.70;4.50;;;9.90;99.90;;;;;;4954293;29;20401;-71
2021/12/29 02:35:43;;;;;;;7.82;5.10;;;9.90;99.90;;;;;;4954006;28;20783;-71
2021/12/29 02:38:20;;;;;;;6.45;5.20;;;9.90;99.90;;;;;;4953765;29;20803;-72
2021/12/29 02:40:50;;;;;;;9.27;6.50;;;9.80;99.90;;;;;;4953413;29;20410;-71
2021/12/29 02:43:20;;;;;;;7.88;6.50;;;9.80;99.90;;;;;;4955057;29;20481;-71
2021/12/29 02:45:49;;;;;;;8.15;6.90;;;9.90;99.90;;;;;;4954018;29;20453;-71
2021/12/29 02:48:16;;;;;;;9.95;7.20;;;9.80;99.90;;;;;;4954145;29;20441;-71
2021/12/29 02:50:43;;;;;;;9.73;7.95;;;9.90;99.90;;;;;;4954109;29;20390;-71
2021/12/29 02:53:09;;;;;;;9.80;7.43;;;9.90;99.90;;;;;;4954083;29;20398;-71
2021/12/29 02:55:35;;;;;;;10.45;8.15;;;9.90;99.90;;;;;;4955142;29;20767;-72
2021/12/29 02:58:01;;;;;;;13.03;9.33;;;9.90;99.90;;;;;;4954104;29;20394;-71
2021/12/29 03:00:27;;;;;;;11.37;8.97;;;9.90;99.90;;;;;;4954288;29;20406;-72
2021/12/29 03:02:52;;;;;;;11.70;9.07;;;9.90;99.90;;;;;;4954213;29;20412;-73
2021/12/29 03:05:20;;;;;;;10.73;9.33;;;9.80;99.90;;;;;;4954709;29;20409;-71
2021/12/29 03:07:45;;;;;;;14.52;10.20;;;9.80;99.90;;;;;;4953733;29;20437;-72
2021/12/29 03:10:11;;;;;;;15.30;10.50;;;9.80;99.90;;;;;;4954474;28;20968;-70
2021/12/29 03:12:36;;;;;;;13.10;9.50;;;9.90;99.90;;;;;;4954740;28;20809;-71
2021/12/29 03:15:02;;;;;;;11.50;9.50;;;9.90;99.90;;;;;;4954901;29;20397;-70
2021/12/29 03:17:30;;;;;;;16.15;10.48;;;9.90;99.90;;;;;;4956470;29;20800;-71
2021/12/29 03:19:56;;;;;;;14.27;10.45;;;9.90;99.90;;;;;;4956073;28;20427;-70
2021/12/29 03:22:21;;;;;;;13.53;9.80;;;9.80;99.90;;;;;;4954074;28;20773;-69
2021/12/29 03:24:47;;;;;;;13.30;9.73;;;9.80;99.90;;;;;;4954068;29;20701;-70
2021/12/29 03:27:13;;;;;;;13.30;10.10;;;9.90;99.90;;;;;;4954541;28;20747;-71
2021/12/29 03:29:38;;;;;;;14.35;10.48;;;9.80;99.90;;;;;;4954914;28;20398;-72
2021/12/29 03:32:08;;;;;;;12.85;10.32;;;9.90;99.90;;;;;;4952987;29;20401;-72
2021/12/29 03:34:34;;;;;;;14.63;10.05;;;9.80;99.90;;;;;;4954060;28;20492;-71
2021/12/29 03:36:59;;;;;;;15.23;10.57;;;9.80;99.90;;;;;;4953677;28;20445;-71
2021/12/29 03:39:26;;;;;;;13.70;9.73;;;9.80;99.90;;;;;;4954679;28;20887;-71
2021/12/29 03:41:52;;;;;;;13.00;9.85;;;9.80;99.90;;;;;;4953925;29;20397;-71
2021/12/29 03:44:18;;;;;;;13.25;9.60;;;9.80;99.90;;;;;;4954224;29;20386;-73
2021/12/29 03:46:43;;;;;;;14.38;10.50;;;9.80;99.90;;;;;;4955991;28;20389;-72
2021/12/29 03:49:10;;;;;;;13.73;10.52;;;9.80;99.90;;;;;;4957739;28;20901;-70
2021/12/29 03:51:36;;;;;;;15.60;10.82;;;9.80;99.90;;;;;;4957455;28;20401;-71
2021/12/29 03:54:04;;;;;;;16.10;10.53;;;9.80;99.90;;;;;;4957663;28;20397;-71
2021/12/29 03:56:30;;;;;;;15.63;10.47;;;9.80;99.90;;;;;;4957768;28;20477;-71
2021/12/29 03:58:56;;;;;;;15.50;10.38;;;9.80;99.90;;;;;;4957421;28;20416;-71
2021/12/29 04:01:25;;;;;;;15.20;11.05;;;9.80;99.90;;;;;;4968129;28;20769;-69
2021/12/29 04:03:52;;;;;;;18.13;11.27;;;9.70;99.90;;;;;;4977822;28;20395;-70
2021/12/29 04:06:19;;;;;;;15.20;10.67;;;9.70;99.90;;;;;;4977380;28;20385;-71
2021/12/29 04:08:45;;;;;;;15.18;10.70;;;9.70;99.90;;;;;;4977711;28;20443;-70
2021/12/29 04:11:11;;;;;;;16.15;11.10;;;9.70;99.90;;;;;;4978307;28;20788;-71
2021/12/29 04:13:36;;;;;;;14.75;10.05;;;9.70;99.90;;;;;;4976549;28;20482;-71
2021/12/29 04:16:05;;;;;;;14.60;9.80;;;9.70;99.90;;;;;;4976841;28;20399;-70
2021/12/29 04:18:31;;;;;;;14.75;10.10;;;9.60;99.90;;;;;;4976914;28;20787;-73
2021/12/29 04:23:35;;;;;;;17.58;10.88;;;9.70;99.90;;;;;;4993072;28;20779;-70
2021/12/29 04:26:05;;;;;;;14.25;10.68;;;9.70;99.90;;;;;;4992938;28;20402;-70
2021/12/29 04:28:32;;;;;;;14.93;11.23;;;9.70;99.90;;;;;;4993875;28;20387;-70
2021/12/29 04:31:06;;;;;;;14.35;11.40;;;9.60;99.90;;;;;;4994164;28;20469;-70
2021/12/29 04:33:32;;;;;;;14.38;11.18;;;9.70;99.90;;;;;;4974640;28;20368;-70
2021/12/29 04:35:58;;;;;;;18.45;13.27;;;9.80;99.90;;;;;;4974518;28;20462;-70
2021/12/29 04:38:25;;;;;;;23.77;15.27;;;9.70;99.90;;;;;;4974582;28;20544;-69
2021/12/29 04:40:53;;;;;;;20.33;14.20;;;9.70;99.90;;;;;;4974521;28;20451;-70
2021/12/29 04:43:19;;;;;;;24.53;16.93;;;9.60;99.90;;;;;;4973020;28;20415;-70
2021/12/29 04:45:45;;;;;;;25.25;17.05;;;9.60;99.90;;;;;;4974523;28;20392;-69
2021/12/29 04:48:14;;;;;;;25.87;17.43;;;9.60;99.90;;;;;;4974235;28;20424;-69
2021/12/29 04:50:53;;;;;;;27.38;18.02;;;9.60;99.90;;;;;;4974292;28;20486;-70
2021/12/29 04:53:21;;;;;;;26.05;17.52;;;9.60;99.90;;;;;;4974327;28;20885;-70
2021/12/29 04:55:49;;;;;;;26.63;17.73;;;9.70;99.90;;;;;;4974244;28;20396;-68
2021/12/29 04:58:16;;;;;;;27.63;17.20;;;9.70;99.90;;;;;;4972621;28;20392;-69
2021/12/29 05:00:42;;;;;;;23.70;16.45;;;9.60;99.90;;;;;;4974063;28;20412;-70
2021/12/29 05:03:07;;;;;;;23.48;15.50;;;9.60;99.90;;;;;;4973977;28;20486;-70
2021/12/29 05:10:47;;;;;;;23.73;15.07;;;9.60;99.90;;;;;;4973801;28;20796;-69
2021/12/29 05:13:14;;;;;;;22.58;15.52;;;9.60;99.90;;;;;;4973908;28;20392;-69
2021/12/29 05:15:40;;;;;;;21.52;15.00;;;9.60;99.90;;;;;;4973781;28;20396;-69
2021/12/29 05:18:05;;;;;;;21.97;14.83;;;9.60;99.90;;;;;;4973708;28;20749;-70
2021/12/29 05:20:32;;;;;;;20.07;14.33;;;9.60;99.90;;;;;;4973657;28;20479;-69
2021/12/29 05:22:59;;;;;;;23.67;15.83;;;9.60;99.90;;;;;;4973579;28;20428;-70
2021/12/29 05:25:25;;;;;;;24.13;15.50;;;9.70;99.90;;;;;;4973798;28;20425;-70
2021/12/29 05:27:52;;;;;;;23.42;15.40;;;9.60;99.90;;;;;;4973616;28;20396;-70
2021/12/29 05:30:18;;;;;;;24.70;15.52;;;9.60;99.90;;;;;;4973606;28;20392;-70
2021/12/29 05:32:43;;;;;;;28.05;16.58;;;9.60;99.90;;;;;;4973661;28;20392;-70
2021/12/29 05:35:10;;;;;;;23.67;16.00;;;9.60;99.90;;;;;;4973418;28;20399;-70
2021/12/29 05:37:36;;;;;;;26.50;16.25;;;9.60;99.90;;;;;;4973786;28;20427;-70
2021/12/29 05:40:03;;;;;;;28.13;16.30;;;9.60;99.70;;;;;;4973571;28;20439;-70
2021/12/29 05:42:29;;;;;;;22.38;16.23;;;9.60;99.90;;;;;;4973451;28;20395;-70
2021/12/29 05:44:55;;;;;;;26.23;16.75;;;9.70;99.60;;;;;;4973677;28;20756;-70
2021/12/29 05:47:20;;;;;;;28.03;17.57;;;9.60;99.90;;;;;;4973126;28;20388;-69
2021/12/29 05:49:46;;;;;;;30.70;17.73;;;9.70;99.90;;;;;;4973303;28;20407;-71
2021/12/29 05:52:15;;;;;;;27.90;18.03;;;9.70;98.60;;;;;;4973253;28;20480;-70
2021/12/29 05:54:41;;;;;;;21.55;16.63;;;9.70;99.50;;;;;;4973861;28;20396;-69
2021/12/29 05:57:06;;;;;;;27.30;17.20;;;9.70;99.20;;;;;;4972973;28;20415;-70
2021/12/29 05:59:32;;;;;;;24.60;17.30;;;9.70;98.90;;;;;;4973299;28;20420;-70
2021/12/29 06:01:57;;;;;;;27.88;17.60;;;9.60;99.90;;;;;;4973398;28;20396;-70
2021/12/29 06:04:23;;;;;;;26.85;18.50;;;9.60;99.90;;;;;;4972922;28;20484;-70
2021/12/29 06:06:48;;;;;;;29.85;18.23;;;9.60;99.90;;;;;;4972682;28;20392;-70
2021/12/29 06:09:14;;;;;;;28.43;19.00;;;9.60;99.90;;;;;;4972316;28;20392;-70
2021/12/29 06:11:40;;;;;;;30.05;18.75;;;9.60;99.90;;;;;;4972612;28;20900;-70
2021/12/29 06:14:06;;;;;;;26.98;17.23;;;9.60;99.90;;;;;;4972522;28;20404;-70
2021/12/29 06:16:31;;;;;;;27.33;19.10;;;9.60;99.90;;;;;;4972985;28;20404;-70
2021/12/29 06:18:57;;;;;;;32.88;19.92;;;9.60;99.90;;;;;;4972738;28;20415;-70
2021/12/29 06:21:22;;;;;;;28.85;19.10;;;9.60;99.90;;;;;;4972517;28;20399;-71
2021/12/29 06:23:48;;;;;;;31.15;19.60;;;9.50;99.90;;;;;;4972460;28;20411;-70
2021/12/29 06:26:14;;;;;;;28.45;17.70;;;9.60;99.90;;;;;;4972103;28;20392;-70
2021/12/29 06:28:41;;;;;;;31.60;19.70;;;9.60;99.90;;;;;;4972370;28;20407;-70
2021/12/29 06:31:07;;;;;;;31.00;19.70;;;9.60;99.90;;;;;;4972490;28;20475;-69
2021/12/29 06:33:33;;;;;;;28.70;18.23;;;9.60;99.90;;;;;;4972549;28;20399;-70
2021/12/29 06:35:58;;;;;;;31.00;18.73;;;9.60;99.90;;;;;;4972333;28;20384;-70
2021/12/29 06:38:24;;;;;;;30.60;17.83;;;9.60;99.90;;;;;;4972207;28;20390;-70
2021/12/29 06:40:50;;;;;;;26.53;17.23;;;9.60;99.90;;;;;;4972265;28;20885;-70
2021/12/29 06:43:16;;;;;;;29.57;17.60;;;9.60;99.90;;;;;;4972447;28;20388;-70
2021/12/29 06:45:42;;;;;;;29.75;18.58;;;9.60;99.90;;;;;;4970790;28;20437;-69
2021/12/29 06:48:07;;;;;;;24.67;17.40;;;9.60;99.90;;;;;;4971721;28;20396;-70
2021/12/29 06:50:33;;;;;;;29.40;18.00;;;9.60;99.90;;;;;;4987201;28;20388;-70
2021/12/29 06:52:59;;;;;;;24.55;16.77;;;9.50;99.90;;;;;;4972209;28;20388;-70
2021/12/29 06:55:24;;;;;;;26.85;18.10;;;9.60;99.90;;;;;;4972066;28;20474;-69
2021/12/29 06:57:50;;;;;;;27.90;17.80;;;9.60;99.90;;;;;;4971760;28;20404;-70
2021/12/29 07:00:16;;;;;;;28.80;18.27;;;9.60;99.90;;;;;;4972050;28;20455;-71
2021/12/29 07:02:42;;;;;;;30.02;17.65;;;9.60;99.90;;;;;;4971879;28;20920;-69
2021/12/29 07:05:07;;;;;;;30.38;18.13;;;9.60;99.50;;;;;;4972103;28;20869;-70
2021/12/29 07:07:33;;;;;;;25.00;17.67;;;9.60;99.90;;;;;;4971279;28;20395;-70
2021/12/29 07:09:59;;;;;;;28.80;18.65;;;9.60;99.90;;;;;;4971949;28;20402;-69
2021/12/29 07:12:24;;;;;;;30.57;18.20;;;9.60;99.90;;;;;;4971921;28;20404;-70
2021/12/29 07:14:50;;;;;;;28.93;17.90;;;9.70;99.20;;;;;;4971809;28;20862;-70
2021/12/29 07:17:16;;;;;;;27.77;17.97;;;9.70;97.80;;;;;;4971637;28;20873;-70
2021/12/29 07:19:41;;;;;;;29.63;18.73;;;9.70;99.20;;;;;;4971947;28;20411;-70
2021/12/29 07:22:07;;;;;;;29.80;18.90;;;9.70;98.50;;;;;;4974441;28;20396;-69
2021/12/29 07:24:34;;;;;;;31.87;18.20;;;9.70;99.40;;;;;;4975935;28;20384;-70
2021/12/29 07:27:00;;;;;;;38.08;18.90;;;9.70;98.60;;;;;;4975418;28;20731;-70
2021/12/29 07:29:26;;;;;;;29.27;17.27;;;9.60;99.90;;;;;;4975900;28;20392;-70
2021/12/29 07:31:53;;;;;;;32.40;19.13;;;9.60;99.90;;;;;;4975639;28;20399;-70
2021/12/29 07:34:20;;;;;;;34.63;18.40;;;9.70;99.90;;;;;;4975557;28;20395;-70
2021/12/29 07:36:46;;;;;;;27.63;17.83;;;9.70;97.50;;;;;;4975270;28;20785;-71
2021/12/29 07:39:14;;;;;;;28.33;17.75;;;9.70;96.50;;;;;;4975680;28;20814;-71
2021/12/29 07:41:41;;;;;;;34.13;17.50;;;9.80;97.60;;;;;;4975401;28;20388;-70
2021/12/29 07:44:12;;;;;;;27.05;16.50;;;9.80;97.90;;;;;;4975468;28;20391;-71
2021/12/29 07:46:38;;;;;;;27.77;15.77;;;9.80;95.50;;;;;;4975053;28;20384;-70
2021/12/29 07:49:04;;;;;;;31.55;17.50;;;9.80;94.70;;;;;;4975449;28;20388;-70
2021/12/29 07:51:30;;;;;;;30.20;18.50;;;9.70;97.10;;;;;;4975532;28;20910;-71
2021/12/29 07:53:56;;;;;;;28.58;16.40;;;9.60;99.90;;;;;;4974487;28;20407;-72
2021/12/29 07:56:23;;;;;;;26.73;15.70;;;9.70;97.60;;;;;;4990491;28;20487;-70
2021/12/29 07:58:48;;;;;;;25.83;15.85;;;9.70;98.00;;;;;;4973855;28;20742;-70
2021/12/29 08:01:14;;;;;;;27.07;15.83;;;9.80;96.40;;;;;;4975774;28;20403;-70
2021/12/29 08:03:40;;;;;;;27.10;15.13;;;9.80;94.60;;;;;;4976974;28;20396;-72
2021/12/29 08:06:06;;;;;;;22.00;15.07;;;9.90;91.80;;;;;;4975659;28;20486;-70
2021/12/29 08:08:33;;;;;;;36.30;16.20;;;9.90;89.60;;;;;;4974963;28;20467;-72
2021/12/29 08:10:58;;;;;;;31.77;14.98;;;9.90;91.50;;;;;;4975339;28;20471;-70
2021/12/29 08:13:24;;;;;;;25.40;14.88;;;9.80;92.80;;;;;;4975342;28;20480;-71
2021/12/29 08:15:49;;;;;;;34.77;15.27;;;9.90;91.30;;;;;;4974690;28;20428;-71
2021/12/29 08:18:15;;;;;;;25.00;14.63;;;9.80;93.30;;;;;;4974831;28;20423;-71
2021/12/29 08:20:41;;;;;;;24.25;14.15;;;9.90;91.00;;;;;;4974490;28;20462;-73
2021/12/29 08:23:08;;;;;;;30.23;15.37;;;10.00;88.60;;;;;;4974248;28;20411;-70
2021/12/29 08:25:34;;;;;;;25.77;14.15;;;10.00;89.20;;;;;;4974991;28;20380;-71
2021/12/29 08:28:00;;;;;;;25.38;14.07;;;10.00;89.70;;;;;;4974555;28;20407;-70
2021/12/29 08:30:26;;;;;;;22.00;12.70;;;10.00;89.00;;;;;;4974721;28;20873;-69
2021/12/29 08:32:52;;;;;;;22.15;12.60;;;10.10;84.60;;;;;;4974030;28;20459;-71
2021/12/29 08:35:18;;;;;;;20.80;12.77;;;10.10;85.80;;;;;;4974441;28;20753;-71
2021/12/29 08:37:44;;;;;;;23.98;12.95;;;10.00;85.10;;;;;;4974382;28;20399;-71
2021/12/29 08:40:12;;;;;;;24.48;13.57;;;10.20;86.60;;;;;;4973082;28;20408;-70
2021/12/29 08:42:38;;;;;;;24.48;13.60;;;10.30;82.70;;;;;;4974279;28;20510;-70
2021/12/29 08:45:06;;;;;;;22.63;13.15;;;10.20;83.60;;;;;;4974172;28;20399;-70
2021/12/29 08:47:32;;;;;;;21.52;12.20;;;10.20;84.90;;;;;;4973925;28;20392;-71
2021/12/29 08:49:57;;;;;;;26.23;13.00;;;10.30;83.40;;;;;;4974239;28;20399;-71
2021/12/29 08:52:23;;;;;;;22.50;12.10;;;10.20;82.40;;;;;;4974218;28;20426;-71
2021/12/29 08:54:49;;;;;;;20.27;12.50;;;10.20;82.80;;;;;;4973909;28;20404;-70
2021/12/29 08:57:14;;;;;;;18.33;11.47;;;10.20;84.60;;;;;;4973844;28;20455;-70
2021/12/29 08:59:40;;;;;;;20.67;12.00;;;10.20;80.20;;;;;;4974038;28;20422;-71
2021/12/29 09:02:06;;;;;;;18.27;10.50;;;10.30;78.20;;;;;;4973760;28;20388;-71
2021/12/29 09:04:31;;;;;;;16.43;10.20;;;10.30;76.60;;;;;;4973857;28;20463;-70
2021/12/29 09:06:57;;;;;;;18.53;10.90;;;10.30;77.50;;;;;;4973910;28;20956;-71
2021/12/29 09:09:23;;;;;;;14.97;10.27;;;10.30;76.30;;;;;;4973925;28;20450;-71
2021/12/29 09:11:48;;;;;;;19.37;10.90;;;10.40;76.10;;;;;;4988421;28;20476;-71
2021/12/29 09:14:14;;;;;;;19.23;10.95;;;10.40;76.50;;;;;;4988722;28;20392;-70
2021/12/29 09:16:40;;;;;;;15.02;10.00;;;10.60;73.10;;;;;;4973109;28;20403;-70
2021/12/29 09:19:11;;;;;;;16.30;8.83;;;10.60;70.70;;;;;;4973303;28;20449;-70
2021/12/29 09:21:38;;;;;;;17.23;10.02;;;10.70;67.10;;;;;;4973143;28;20404;-71
2021/12/29 09:24:07;;;;;;;13.10;9.18;;;10.80;69.00;;;;;;4973497;28;20838;-71
2021/12/29 09:26:32;;;;;;;14.55;9.00;;;10.90;68.30;;;;;;4972368;28;20478;-70
2021/12/29 09:28:58;;;;;;;14.93;8.60;;;11.00;66.10;;;;;;4973304;28;20532;-70
2021/12/29 09:31:24;;;;;;;18.85;9.30;;;11.00;63.60;;;;;;4974002;28;20692;-71
2021/12/29 09:33:50;;;;;;;16.60;9.20;;;11.00;66.10;;;;;;4973465;28;20891;-72
2021/12/29 09:36:16;;;;;;;21.00;9.25;;;11.10;65.30;;;;;;4973692;28;20474;-72
2021/12/29 09:38:42;;;;;;;20.75;9.23;;;11.20;63.20;;;;;;4973215;28;20463;-71
2021/12/29 09:41:11;;;;;;;17.70;9.00;;;11.10;65.10;;;;;;4973480;28;20398;-71
2021/12/29 09:43:37;;;;;;;14.88;9.55;;;11.20;63.90;;;;;;4972535;28;20397;-70
2021/12/29 09:46:05;;;;;;;16.37;9.80;;;11.20;61.50;;;;;;4972948;28;20388;-70
2021/12/29 09:48:31;;;;;;;17.98;9.50;;;11.30;63.00;;;;;;4972762;28;20806;-72
2021/12/29 09:50:56;;;;;;;17.43;9.30;;;11.30;61.80;;;;;;4973375;28;20392;-71
2021/12/29 09:53:22;;;;;;;19.43;10.40;;;11.40;60.00;;;;;;4973145;28;20494;-72
2021/12/29 09:55:48;;;;;;;15.55;10.55;;;11.50;57.80;;;;;;4973625;28;20400;-70
2021/12/29 09:58:15;;;;;;;16.98;10.20;;;11.60;57.40;;;;;;4973342;28;20419;-72
2021/12/29 10:00:50;;;;;;;17.48;9.57;;;11.60;57.10;;;;;;4972357;28;20463;-70
2021/12/29 10:03:19;;;;;;;22.98;10.30;;;11.60;57.10;;;;;;4974122;28;20404;-71
2021/12/29 10:05:48;;;;;;;16.42;10.10;;;11.60;56.50;;;;;;4973998;28;20388;-71
2021/12/29 10:08:28;;;;;;;20.25;11.82;;;11.60;55.10;;;;;;4974179;28;20385;-70
2021/12/29 10:11:00;;;;;;;23.25;14.77;;;11.50;54.20;;;;;;4974492;28;20442;-70
2021/12/29 10:13:34;;;;;;;35.23;18.10;;;11.60;54.10;;;;;;4974800;28;20423;-71
2021/12/29 10:16:06;;;;;;;28.75;17.85;;;11.60;54.50;;;;;;4974707;28;20822;-71
2021/12/29 10:18:34;;;;;;;28.90;19.08;;;11.60;53.50;;;;;;4973175;28;20389;-71
2021/12/29 10:21:03;;;;;;;33.28;19.63;;;11.60;55.20;;;;;;4973966;28;20904;-72
2021/12/29 10:23:32;;;;;;;32.03;21.27;;;11.60;55.10;;;;;;5002666;23;20939;-72
2021/12/29 10:26:07;;;;;;;28.33;17.88;;;11.60;55.90;;;;;;4973975;28;20412;-71
2021/12/29 10:28:33;;;;;;;23.00;15.07;;;11.60;54.70;;;;;;4975526;28;20944;-73
2021/12/29 10:31:08;;;;;;;21.35;12.85;;;11.50;56.00;;;;;;4975652;28;20467;-70
2021/12/29 10:33:48;;;;;;;19.27;10.57;;;11.40;56.90;;;;;;4973352;28;20384;-71
2021/12/29 10:36:19;;;;;;;16.23;8.90;;;11.50;56.10;;;;;;4973314;28;20384;-72
2021/12/29 10:38:51;;;;;;;15.68;8.68;;;11.70;54.00;;;;;;4973537;28;20818;-72
2021/12/29 10:41:17;;;;;;;13.60;8.80;;;11.60;54.20;;;;;;4972979;28;20451;-72
2021/12/29 10:44:01;;;;;;;14.23;8.63;;;11.50;53.90;;;;;;4972841;28;20388;-72
2021/12/29 10:46:31;;;;;;;12.15;7.30;;;11.50;55.20;;;;;;4972844;28;20380;-72
2021/12/29 10:48:59;;;;;;;17.25;8.70;;;11.60;56.20;;;;;;4973283;28;20376;-72
2021/12/29 10:51:33;;;;;;;12.60;7.70;;;11.60;55.70;;;;;;4973199;28;20801;-71
2021/12/29 10:54:10;;;;;;;12.80;7.55;;;11.90;52.90;;;;;;4972842;28;20480;-73
2021/12/29 10:56:38;;;;;;;15.05;7.03;;;12.00;51.80;;;;;;4973002;28;20491;-71
2021/12/29 10:59:18;;;;;;;13.98;7.30;;;12.10;51.70;;;;;;4972487;28;20454;-72
2021/12/29 11:01:45;;;;;;;15.00;8.55;;;12.20;49.60;;;;;;4972384;28;20448;-72
2021/12/29 11:04:13;;;;;;;17.30;7.88;;;12.30;51.10;;;;;;4972631;28;20858;-71
2021/12/29 11:06:43;;;;;;;15.63;7.20;;;12.30;50.20;;;;;;4971274;28;20403;-71
2021/12/29 11:09:11;;;;;;;15.80;7.63;;;12.30;49.50;;;;;;4971499;28;20523;-71
2021/12/29 11:11:42;;;;;;;13.55;6.78;;;12.20;51.50;;;;;;4972659;28;20746;-74
2021/12/29 11:14:31;;;;;;;18.65;7.00;;;12.30;50.20;;;;;;4972830;28;20487;-71
2021/12/29 11:17:04;;;;;;;12.70;6.90;;;12.20;50.20;;;;;;4969651;28;20774;-71
2021/12/29 11:19:30;;;;;;;16.02;7.00;;;12.10;52.60;;;;;;4952947;29;20410;-71
2021/12/29 11:22:08;;;;;;;19.63;8.07;;;12.00;53.10;;;;;;4967801;28;20406;-72
2021/12/29 11:24:34;;;;;;;19.58;7.10;;;11.90;53.80;;;;;;4955114;29;20386;-73
2021/12/29 11:27:07;;;;;;;18.30;7.40;;;11.90;54.30;;;;;;4952939;29;20393;-71
2021/12/29 11:29:32;;;;;;;19.48;7.32;;;11.90;54.10;;;;;;4953407;28;20850;-72
2021/12/29 11:32:03;;;;;;;16.10;7.30;;;11.80;52.70;;;;;;4952293;28;20493;-74
2021/12/29 11:34:29;;;;;;;16.73;7.30;;;11.80;53.40;;;;;;4953214;28;20390;-72
2021/12/29 11:37:05;;;;;;;27.92;7.30;;;11.80;53.90;;;;;;4953661;28;20456;-71
2021/12/29 11:39:33;;;;;;;20.05;7.10;;;11.80;53.60;;;;;;4953472;28;20413;-72
2021/12/29 11:41:59;;;;;;;32.30;8.90;;;11.80;54.00;;;;;;4953442;28;20398;-72
2021/12/29 11:44:25;;;;;;;28.85;8.40;;;11.80;53.90;;;;;;4953977;28;20929;-73
2021/12/29 11:46:51;;;;;;;28.73;9.80;;;11.80;54.50;;;;;;4952850;29;20394;-71
2021/12/29 11:49:18;;;;;;;34.05;11.52;;;11.80;53.30;;;;;;4953361;28;20763;-71
2021/12/29 11:52:06;;;;;;;21.27;8.70;;;11.80;54.40;;;;;;4968099;28;20987;-71
2021/12/29 11:55:06;;;;;;;20.60;9.23;;;11.80;53.50;;;;;;4954201;28;20390;-72
2021/12/29 11:57:34;;;;;;;23.38;9.50;;;11.90;51.70;;;;;;4949602;29;20406;-71
2021/12/29 12:00:10;;;;;;;20.42;7.75;;;11.80;51.70;;;;;;4954424;28;20406;-71
2021/12/29 12:02:35;;;;;;;27.05;8.55;;;11.80;51.80;;;;;;4953505;28;20393;-71
2021/12/29 12:05:10;;;;;;;25.63;9.43;;;11.80;52.40;;;;;;4953563;29;20385;-72
2021/12/29 12:07:40;;;;;;;22.75;9.18;;;11.90;53.70;;;;;;4956069;28;20421;-71
2021/12/29 12:10:11;;;;;;;26.60;8.63;;;11.90;51.20;;;;;;4956968;28;20394;-71
2021/12/29 12:12:47;;;;;;;35.65;18.45;;;11.90;52.10;;;;;;4956927;28;20390;-74
2021/12/29 12:15:14;;;;;;;22.42;9.50;;;11.80;51.40;;;;;;4957093;29;20412;-71
2021/12/29 12:17:54;;;;;;;32.53;15.82;;;11.90;52.00;;;;;;4955401;29;20434;-72
2021/12/29 12:20:19;;;;;;;16.92;8.75;;;11.90;52.20;;;;;;4956467;29;20414;-72
2021/12/29 12:22:48;;;;;;;17.93;8.10;;;11.90;52.60;;;;;;4956068;28;20402;-72
2021/12/29 12:25:19;;;;;;;24.70;8.15;;;12.00;52.40;;;;;;4956590;28;20421;-72
2021/12/29 12:27:48;;;;;;;20.08;8.32;;;12.00;52.10;;;;;;4956469;28;20382;-72
2021/12/29 12:30:26;;;;;;;14.70;8.15;;;12.00;53.50;;;;;;4971742;28;20464;-73
2021/12/29 12:32:56;;;;;;;16.10;8.65;;;11.90;52.10;;;;;;4956182;28;20404;-71
2021/12/29 12:35:30;;;;;;;22.67;8.70;;;11.90;54.00;;;;;;4956297;28;20769;-72
2021/12/29 12:37:56;;;;;;;22.60;8.43;;;11.70;54.00;;;;;;4955940;28;20386;-72
2021/12/29 12:40:31;;;;;;;17.92;8.80;;;11.70;54.90;;;;;;4955740;28;20760;-71
2021/12/29 12:43:12;;;;;;;21.05;9.13;;;11.60;55.40;;;;;;4956093;28;20432;-72
2021/12/29 12:45:40;;;;;;;31.67;9.65;;;11.60;56.60;;;;;;4956101;28;20827;-70
2021/12/29 12:48:18;;;;;;;26.38;8.90;;;11.60;57.00;;;;;;4954883;28;20905;-71